Time;durP1;ratioP1;P1;durP2;ratioP2;P2;SDS_P1;SDS_P2;PMS_P1;PMS_P2;Temp;Humidity;BMP_temperature;BMP_pressure;BME280_temperature;BME280_humidity;BME280_pressure;Samples;Min_cycle;Max_cycle;Signal;HPM_P1;HPM_P2
2023/07/07 00:04:27;;;;;;;4.40;1.98;;;14.00;99.90;;;;;;15493274;22;20362;-37
2023/07/07 00:10:29;;;;;;;4.43;1.90;;;13.90;99.90;;;;;;15493084;22;20399;-37
2023/07/07 00:16:31;;;;;;;6.03;1.75;;;14.00;99.90;;;;;;15471557;23;20020;-37
2023/07/07 00:22:34;;;;;;;6.57;1.80;;;14.30;99.90;;;;;;15499495;22;20028;-37
2023/07/07 00:28:36;;;;;;;4.22;1.80;;;14.50;99.90;;;;;;15497156;23;20358;-37
2023/07/07 00:34:38;;;;;;;6.43;2.10;;;14.80;99.90;;;;;;15471596;23;20099;-37
2023/07/07 00:40:40;;;;;;;4.13;1.98;;;14.80;99.90;;;;;;15496887;23;20031;-37
2023/07/07 00:46:42;;;;;;;3.08;1.90;;;14.90;99.90;;;;;;15495713;23;20024;-37
2023/07/07 00:52:45;;;;;;;5.30;1.90;;;14.90;99.90;;;;;;15494242;23;20024;-38
2023/07/07 00:58:47;;;;;;;3.67;1.58;;;14.90;99.90;;;;;;15488734;23;20031;-37
2023/07/07 01:04:51;;;;;;;4.00;1.80;;;14.90;99.90;;;;;;15467156;23;20028;-37
2023/07/07 01:10:53;;;;;;;4.15;1.98;;;14.80;99.90;;;;;;15497261;23;20066;-37
2023/07/07 01:17:28;;;;;;;5.20;2.03;;;14.50;99.90;;;;;;15498732;22;20020;-38
2023/07/07 01:24:26;;;;;;;5.78;1.85;;;14.50;99.90;;;;;;15419196;22;20028;-37
2023/07/07 01:30:41;;;;;;;2.95;1.75;;;14.20;99.90;;;;;;15491294;23;20024;-37
2023/07/07 01:36:43;;;;;;;3.53;1.80;;;13.50;99.90;;;;;;15508269;23;20020;-37
2023/07/07 01:42:50;;;;;;;6.30;2.05;;;13.30;99.90;;;;;;15507288;23;20028;-37
2023/07/07 01:49:14;;;;;;;3.35;1.88;;;13.30;99.90;;;;;;15508437;23;20039;-37
2023/07/07 01:55:19;;;;;;;5.13;2.10;;;13.60;99.90;;;;;;15487089;22;20024;-37
2023/07/07 02:01:21;;;;;;;;;;;13.70;99.90;;;;;;15502870;22;20016;-37
2023/07/07 02:07:23;;;;;;;4.88;1.85;;;13.60;99.90;;;;;;15502467;22;19923;-38
2023/07/07 02:13:25;;;;;;;7.55;2.17;;;13.80;99.90;;;;;;15505619;23;20035;-37
2023/07/07 02:19:27;;;;;;;5.05;1.88;;;13.80;99.90;;;;;;15500476;23;20087;-38
2023/07/07 02:25:29;;;;;;;4.10;2.20;;;13.90;99.90;;;;;;15507165;23;20043;-37
2023/07/07 02:31:31;;;;;;;7.10;1.90;;;13.90;99.90;;;;;;15497379;22;20086;-37
2023/07/07 02:37:33;;;;;;;5.97;1.80;;;13.60;99.90;;;;;;15474728;23;20026;-37
2023/07/07 02:43:35;;;;;;;3.70;1.70;;;13.70;99.90;;;;;;15471557;23;20070;-37
2023/07/07 02:49:37;;;;;;;4.70;2.10;;;13.70;99.90;;;;;;15501958;22;20024;-37
2023/07/07 02:55:39;;;;;;;4.13;2.05;;;13.70;99.90;;;;;;15504499;22;20039;-37
2023/07/07 03:01:44;;;;;;;4.57;2.08;;;13.70;99.90;;;;;;15499950;23;20020;-37
2023/07/07 03:07:46;;;;;;;4.88;1.92;;;13.60;99.90;;;;;;15496810;23;20024;-37
2023/07/07 03:13:49;;;;;;;4.35;2.42;;;13.60;99.90;;;;;;15476562;23;20028;-37
2023/07/07 03:19:51;;;;;;;5.57;2.50;;;13.60;99.90;;;;;;15501176;23;20020;-37
2023/07/07 03:25:53;;;;;;;6.50;2.60;;;13.50;99.90;;;;;;15496113;23;20032;-38
2023/07/07 03:31:55;;;;;;;6.05;3.00;;;13.60;99.90;;;;;;15494199;22;20031;-37
2023/07/07 03:37:57;;;;;;;4.88;2.35;;;13.70;99.90;;;;;;15503132;23;20078;-37
2023/07/07 03:43:59;;;;;;;7.13;2.92;;;13.80;99.90;;;;;;15494045;22;20028;-37
2023/07/07 03:50:01;;;;;;;5.40;2.63;;;13.50;99.90;;;;;;15472192;23;20028;-37
2023/07/07 03:56:04;;;;;;;5.15;2.63;;;13.50;99.90;;;;;;15499036;23;20012;-37
2023/07/07 04:02:06;;;;;;;6.27;2.87;;;13.60;99.90;;;;;;15492280;23;20052;-37
2023/07/07 04:08:09;;;;;;;7.53;3.35;;;13.70;99.90;;;;;;15494571;23;20026;-37
2023/07/07 04:14:11;;;;;;;6.78;2.80;;;14.00;99.90;;;;;;15504243;23;20020;-37
2023/07/07 04:20:13;;;;;;;6.25;2.60;;;15.50;99.90;;;;;;15494454;22;20043;-37
2023/07/07 04:26:16;;;;;;;6.03;2.45;;;17.50;99.90;;;;;;15503515;23;20024;-37
2023/07/07 04:32:18;;;;;;;5.38;2.38;;;17.10;99.90;;;;;;15501661;22;20024;-37
2023/07/07 04:38:23;;;;;;;5.47;2.30;;;17.00;99.90;;;;;;15505737;23;20027;-37
2023/07/07 04:44:25;;;;;;;5.75;2.20;;;17.80;99.90;;;;;;15470864;23;20474;-39
2023/07/07 04:50:27;;;;;;;3.78;1.98;;;19.10;99.90;;;;;;15500156;23;20020;-37
2023/07/07 04:56:29;;;;;;;3.28;2.03;;;19.20;99.90;;;;;;15496967;23;20023;-37
2023/07/07 05:02:33;;;;;;;3.40;2.00;;;18.50;99.90;;;;;;15494162;22;20110;-37
2023/07/07 05:08:38;;;;;;;2.92;1.73;;;17.80;99.90;;;;;;15502308;23;20055;-37
2023/07/07 05:14:40;;;;;;;8.90;2.45;;;17.30;99.90;;;;;;15494722;23;20028;-37
2023/07/07 05:20:45;;;;;;;;;;;16.70;99.90;;;;;;15494182;23;20476;-37
2023/07/07 05:26:47;;;;;;;5.45;2.60;;;16.20;99.90;;;;;;15469105;23;19915;-38
2023/07/07 05:32:49;;;;;;;6.18;2.97;;;16.00;99.90;;;;;;15473910;23;20016;-38
2023/07/07 05:38:51;;;;;;;5.55;2.30;;;15.70;99.90;;;;;;15499321;23;20020;-38
2023/07/07 05:44:53;;;;;;;5.50;2.47;;;16.10;99.90;;;;;;15498617;22;20504;-38
2023/07/07 05:51:00;;;;;;;5.13;2.53;;;16.10;99.90;;;;;;15492567;23;20020;-38
2023/07/07 05:57:03;;;;;;;4.88;2.63;;;16.10;99.90;;;;;;15496906;23;20031;-38
2023/07/07 06:03:05;;;;;;;7.22;2.65;;;16.30;99.90;;;;;;15495404;23;20075;-38
2023/07/07 06:09:07;;;;;;;3.20;1.95;;;16.10;99.90;;;;;;15497244;23;20086;-38
2023/07/07 06:15:10;;;;;;;3.28;2.03;;;16.20;99.90;;;;;;15499597;22;20561;-38
2023/07/07 06:21:12;;;;;;;9.18;2.22;;;16.20;99.90;;;;;;15503633;23;20458;-37
2023/07/07 06:27:14;;;;;;;5.80;2.10;;;16.30;99.90;;;;;;15504818;23;20024;-37
2023/07/07 06:33:18;;;;;;;3.97;1.90;;;17.00;99.90;;;;;;15476935;23;20508;-38
2023/07/07 06:39:22;;;;;;;4.90;1.85;;;17.80;99.90;;;;;;15503105;23;20020;-38
2023/07/07 06:45:27;;;;;;;4.13;1.67;;;18.40;99.90;;;;;;15502710;22;20114;-37
2023/07/07 06:51:29;;;;;;;5.20;2.13;;;18.40;99.90;;;;;;15500772;23;20024;-37
2023/07/07 06:57:31;;;;;;;3.33;1.67;;;18.50;99.90;;;;;;15470021;23;20035;-37
2023/07/07 07:03:33;;;;;;;3.85;1.80;;;18.60;99.90;;;;;;15498950;22;20024;-38
2023/07/07 07:09:35;;;;;;;5.40;1.85;;;18.70;99.90;;;;;;15502800;23;20101;-38
2023/07/07 07:15:37;;;;;;;3.22;1.50;;;18.80;99.90;;;;;;15504039;23;20111;-38
2023/07/07 07:21:39;;;;;;;4.25;1.40;;;18.90;99.90;;;;;;15500005;23;20020;-38
2023/07/07 07:27:41;;;;;;;3.17;1.75;;;18.80;99.90;;;;;;15497896;23;20028;-38
2023/07/07 07:33:43;;;;;;;4.95;1.60;;;18.70;99.90;;;;;;15498136;23;20354;-36
2023/07/07 07:39:45;;;;;;;4.13;1.55;;;18.70;99.90;;;;;;15473846;23;20048;-37
2023/07/07 07:45:47;;;;;;;3.88;1.40;;;18.90;99.90;;;;;;15472272;23;20956;-37
2023/07/07 07:51:49;;;;;;;4.60;2.13;;;19.00;99.90;;;;;;15495313;22;20027;-38
2023/07/07 07:57:51;;;;;;;3.28;1.42;;;19.30;99.90;;;;;;15500951;22;20016;-38
2023/07/07 08:03:54;;;;;;;3.17;1.27;;;19.50;99.90;;;;;;15495698;23;20024;-38
2023/07/07 08:09:56;;;;;;;2.50;1.30;;;19.70;99.90;;;;;;15471929;23;20508;-39
2023/07/07 08:15:58;;;;;;;6.68;1.42;;;19.90;99.90;;;;;;15492283;23;20031;-38
2023/07/07 08:22:01;;;;;;;4.00;1.40;;;20.10;99.90;;;;;;15468401;22;20034;-38
2023/07/07 08:28:04;;;;;;;2.95;1.15;;;20.30;99.90;;;;;;15502733;22;20031;-38
2023/07/07 08:34:10;;;;;;;3.13;0.95;;;20.50;99.90;;;;;;15496882;22;20360;-37
2023/07/07 08:40:18;;;;;;;4.47;1.50;;;20.60;99.90;;;;;;15475816;23;20320;-38
2023/07/07 08:46:38;;;;;;;3.28;1.30;;;20.70;99.90;;;;;;15493257;23;20028;-39
2023/07/07 08:53:15;;;;;;;3.90;1.17;;;20.90;99.90;;;;;;15485791;23;20027;-41
2023/07/07 08:59:52;;;;;;;2.75;1.20;;;21.30;99.90;;;;;;15448209;23;20016;-38
2023/07/07 09:06:11;;;;;;;3.17;1.08;;;21.50;99.90;;;;;;15494461;22;20020;-37
2023/07/07 09:12:19;;;;;;;3.22;1.20;;;22.00;99.90;;;;;;15498046;23;20078;-37
2023/07/07 09:18:28;;;;;;;2.17;1.00;;;22.30;99.90;;;;;;15492067;23;20031;-37
2023/07/07 09:24:34;;;;;;;2.22;1.17;;;22.30;99.90;;;;;;15489935;22;20030;-38
2023/07/07 09:30:58;;;;;;;3.88;1.40;;;22.80;99.90;;;;;;15493589;23;20112;-37
2023/07/07 09:37:42;;;;;;;2.95;1.40;;;23.30;99.90;;;;;;12611741;27;20856;-36
2023/07/07 09:43:56;;;;;;;2.30;1.15;;;23.90;99.90;;;;;;12566595;28;20131;-37
2023/07/07 09:50:12;;;;;;;3.72;1.38;;;24.00;99.90;;;;;;12575325;28;20056;-39
2023/07/07 09:56:25;;;;;;;2.50;1.20;;;24.10;99.90;;;;;;12563534;28;20412;-38
2023/07/07 10:02:28;;;;;;;4.82;1.38;;;24.60;99.90;;;;;;12556945;28;20496;-39
2023/07/07 10:08:30;;;;;;;4.07;1.30;;;24.70;99.90;;;;;;12581255;28;20101;-38
2023/07/07 10:14:32;;;;;;;3.05;1.15;;;24.60;99.90;;;;;;12558739;28;20044;-39
2023/07/07 10:20:35;;;;;;;3.15;1.20;;;25.10;99.90;;;;;;12556634;28;20049;-38
2023/07/07 10:26:44;;;;;;;2.47;1.10;;;25.40;99.90;;;;;;12535078;28;20056;-38
2023/07/07 10:32:46;;;;;;;1.98;1.10;;;25.70;99.90;;;;;;12545147;28;20045;-38
2023/07/07 10:38:48;;;;;;;3.55;1.48;;;25.90;99.90;;;;;;12578171;28;20079;-38
2023/07/07 10:45:00;;;;;;;3.47;1.40;;;25.80;99.90;;;;;;12535015;28;20080;-38
2023/07/07 10:51:31;;;;;;;4.35;1.30;;;26.10;99.90;;;;;;12499684;28;20061;-39
2023/07/07 10:57:43;;;;;;;3.13;1.30;;;25.60;99.90;;;;;;12507112;28;20048;-39
2023/07/07 11:04:04;;;;;;;2.88;1.25;;;25.80;99.90;;;;;;12525082;28;20058;-39
2023/07/07 11:10:52;;;;;;;3.28;1.73;;;26.10;99.90;;;;;;12517285;28;20123;-39
2023/07/07 11:17:04;;;;;;;2.92;1.38;;;26.50;99.90;;;;;;12425913;28;20084;-39
2023/07/07 11:23:35;;;;;;;2.63;1.13;;;26.40;99.90;;;;;;12507537;28;20053;-39
2023/07/07 11:29:51;;;;;;;2.47;1.20;;;26.80;99.90;;;;;;12490469;28;20040;-39
2023/07/07 11:36:31;;;;;;;4.10;1.25;;;26.60;99.90;;;;;;12524539;28;20076;-39
2023/07/07 11:43:08;;;;;;;2.65;1.38;;;26.90;99.90;;;;;;12489538;28;20470;-39
2023/07/07 11:49:38;;;;;;;4.97;1.50;;;26.60;99.90;;;;;;12520072;28;20135;-38
2023/07/07 11:55:55;;;;;;;2.30;1.10;;;26.70;99.90;;;;;;12515363;28;20215;-38
2023/07/07 12:01:58;;;;;;;3.45;1.50;;;26.50;99.90;;;;;;12513766;28;20130;-38
2023/07/07 12:08:17;;;;;;;3.55;1.33;;;26.70;99.90;;;;;;12529925;28;20509;-38
2023/07/07 12:14:29;;;;;;;4.40;1.35;;;26.50;99.90;;;;;;12500848;28;20072;-38
2023/07/07 12:20:40;;;;;;;2.45;1.10;;;26.50;99.90;;;;;;12506455;28;20456;-38
2023/07/07 12:26:48;;;;;;;2.97;1.05;;;26.60;99.90;;;;;;12512670;28;20417;-38
2023/07/07 12:32:51;;;;;;;3.85;1.20;;;26.60;99.90;;;;;;12510573;28;20080;-38
2023/07/07 12:38:57;;;;;;;4.25;1.35;;;26.50;99.90;;;;;;12523109;28;20887;-39
2023/07/07 12:45:07;;;;;;;3.20;1.38;;;26.20;99.90;;;;;;12511259;28;20488;-38
2023/07/07 12:51:10;;;;;;;4.40;1.40;;;26.20;99.90;;;;;;12520208;28;20049;-38
2023/07/07 12:57:17;;;;;;;4.40;1.38;;;26.50;99.90;;;;;;12504769;28;20077;-38
2023/07/07 13:03:20;;;;;;;2.72;1.25;;;26.40;99.90;;;;;;12482041;28;20493;-39
2023/07/07 13:09:25;;;;;;;3.78;1.25;;;26.60;99.90;;;;;;12519905;28;20060;-39
2023/07/07 13:15:27;;;;;;;3.55;1.10;;;26.80;99.90;;;;;;12495533;28;20045;-39
2023/07/07 13:21:36;;;;;;;3.30;1.43;;;26.70;99.90;;;;;;12492177;28;20060;-39
2023/07/07 13:27:37;;;;;;;3.15;1.33;;;26.50;99.90;;;;;;12503335;28;20041;-38
2023/07/07 13:33:40;;;;;;;2.17;1.20;;;26.40;99.90;;;;;;12515995;28;20045;-40
2023/07/07 13:39:43;;;;;;;2.60;1.20;;;26.50;99.90;;;;;;12505215;28;20497;-39
2023/07/07 13:45:45;;;;;;;2.20;1.30;;;26.80;99.90;;;;;;12510085;28;20055;-38
2023/07/07 13:51:54;;;;;;;4.10;1.60;;;26.60;99.90;;;;;;12503496;28;20049;-37
2023/07/07 13:57:58;;;;;;;3.30;1.50;;;25.90;99.90;;;;;;12501530;28;20566;-38
2023/07/07 14:04:01;;;;;;;5.15;1.40;;;26.00;99.90;;;;;;12514372;28;20048;-39
2023/07/07 14:10:29;;;;;;;3.72;1.23;;;26.30;99.90;;;;;;12510881;28;20061;-38
2023/07/07 14:16:40;;;;;;;5.22;1.70;;;26.50;99.90;;;;;;12479956;28;20045;-37
2023/07/07 14:22:43;;;;;;;4.75;1.30;;;26.60;99.90;;;;;;12506717;28;20057;-38
2023/07/07 14:28:46;;;;;;;;;;;26.70;99.90;;;;;;12499207;28;20114;-37
2023/07/07 14:35:17;;;;;;;2.13;1.10;;;26.90;99.90;;;;;;12519644;28;20030;-39
2023/07/07 14:41:20;;;;;;;2.22;1.30;;;26.90;99.90;;;;;;12488397;28;20041;-37
2023/07/07 14:47:31;;;;;;;4.75;1.27;;;26.90;99.90;;;;;;12528884;28;20394;-38
2023/07/07 14:53:33;;;;;;;3.00;1.40;;;26.80;99.90;;;;;;12507547;28;20410;-39
2023/07/07 14:59:36;;;;;;;3.50;1.40;;;27.00;99.90;;;;;;12501884;28;20092;-38
2023/07/07 15:05:40;;;;;;;2.38;1.23;;;26.70;99.90;;;;;;12521938;28;20044;-38
2023/07/07 15:11:42;;;;;;;9.43;1.50;;;26.70;99.90;;;;;;12513107;28;20057;-38
2023/07/07 15:17:44;;;;;;;2.10;1.25;;;26.80;99.90;;;;;;12482939;28;20054;-38
2023/07/07 15:23:46;;;;;;;3.20;1.30;;;26.90;99.90;;;;;;12522080;28;20516;-38
2023/07/07 15:29:48;;;;;;;3.87;1.27;;;26.80;99.90;;;;;;12517537;28;20053;-39
2023/07/07 15:35:52;;;;;;;3.23;1.07;;;26.80;99.90;;;;;;12525436;28;20045;-38
2023/07/07 15:41:54;;;;;;;2.35;1.23;;;26.80;99.90;;;;;;12512429;28;20049;-40
2023/07/07 15:47:56;;;;;;;3.28;1.27;;;26.50;99.90;;;;;;12515851;28;20056;-38
2023/07/07 15:53:58;;;;;;;1.90;1.27;;;26.70;99.90;;;;;;12517768;28;20048;-37
2023/07/07 16:00:01;;;;;;;1.75;1.00;;;26.80;99.90;;;;;;12483370;28;20053;-38
2023/07/07 16:06:03;;;;;;;4.50;1.27;;;27.10;99.90;;;;;;12513754;28;20053;-38
2023/07/07 16:12:13;;;;;;;2.80;1.30;;;27.10;99.90;;;;;;12518653;28;20409;-37
2023/07/07 16:18:15;;;;;;;2.40;1.42;;;26.60;99.90;;;;;;12510805;28;20041;-38
2023/07/07 16:24:17;;;;;;;3.33;1.13;;;26.40;99.90;;;;;;12490187;28;20037;-37
2023/07/07 16:30:25;;;;;;;2.63;1.30;;;26.20;99.90;;;;;;12518300;28;20049;-38
2023/07/07 16:36:29;;;;;;;4.78;1.30;;;26.60;99.90;;;;;;12541341;28;20077;-38
2023/07/07 16:42:31;;;;;;;2.95;1.00;;;26.70;99.90;;;;;;12498152;28;20798;-37
2023/07/07 16:48:32;;;;;;;1.77;1.10;;;27.00;99.90;;;;;;12489114;28;20516;-38
2023/07/07 16:54:47;;;;;;;2.58;1.15;;;26.90;99.90;;;;;;12494546;28;20572;-39
2023/07/07 17:00:49;;;;;;;1.97;1.00;;;26.80;99.90;;;;;;12489187;28;20044;-38
2023/07/07 17:06:51;;;;;;;2.17;1.30;;;26.80;99.90;;;;;;12495194;28;20045;-38
2023/07/07 17:12:53;;;;;;;5.25;1.20;;;26.40;99.90;;;;;;12489690;28;20566;-38
2023/07/07 17:18:58;;;;;;;3.33;1.30;;;26.20;99.90;;;;;;12524595;28;20049;-39
2023/07/07 17:25:00;;;;;;;2.13;1.27;;;26.10;99.90;;;;;;12475638;28;20068;-38
2023/07/07 17:31:01;;;;;;;3.08;1.42;;;26.10;99.90;;;;;;12509012;28;20052;-38
2023/07/07 17:37:04;;;;;;;3.27;1.10;;;26.10;99.90;;;;;;12520259;28;20135;-39
2023/07/07 17:43:06;;;;;;;6.90;1.40;;;26.20;99.90;;;;;;12492367;28;20056;-39
2023/07/07 17:49:15;;;;;;;6.38;1.52;;;26.20;99.90;;;;;;12495661;28;20067;-38
2023/07/07 17:55:18;;;;;;;2.97;1.33;;;26.30;99.90;;;;;;12532381;28;20037;-38
2023/07/07 18:01:21;;;;;;;5.93;1.52;;;26.30;99.90;;;;;;12499590;28;20057;-40
2023/07/07 18:07:23;;;;;;;2.95;1.42;;;26.40;99.90;;;;;;12529391;28;20140;-39
2023/07/07 18:13:25;;;;;;;3.33;1.30;;;26.20;99.90;;;;;;12521137;28;20045;-38
2023/07/07 18:19:27;;;;;;;3.20;1.33;;;25.90;99.90;;;;;;12516976;28;20079;-38
2023/07/07 18:25:49;;;;;;;4.43;1.30;;;25.40;99.90;;;;;;12516160;28;20041;-39
2023/07/07 18:31:51;;;;;;;2.70;1.50;;;25.10;99.90;;;;;;12525525;28;20053;-38
2023/07/07 18:37:56;;;;;;;2.57;1.57;;;24.90;99.90;;;;;;12543984;28;20052;-37
2023/07/07 18:43:58;;;;;;;2.92;1.50;;;24.70;99.90;;;;;;12516321;28;20290;-37
2023/07/07 18:50:10;;;;;;;3.08;1.52;;;24.60;99.90;;;;;;12504953;28;20132;-37
2023/07/07 18:56:16;;;;;;;2.20;1.10;;;24.40;99.90;;;;;;12497265;28;20916;-38
2023/07/07 19:02:18;;;;;;;5.32;1.30;;;24.30;99.90;;;;;;12514211;28;20049;-38
2023/07/07 19:08:22;;;;;;;4.43;1.50;;;24.20;99.90;;;;;;12534174;28;20074;-37
2023/07/07 19:14:25;;;;;;;4.53;1.60;;;24.00;99.90;;;;;;12497567;28;20065;-37
2023/07/07 19:20:27;;;;;;;3.75;1.33;;;23.90;99.90;;;;;;12503876;28;20083;-38
2023/07/07 19:26:36;;;;;;;3.17;1.50;;;23.50;99.90;;;;;;12520005;28;20057;-37
2023/07/07 19:32:41;;;;;;;6.70;1.75;;;23.30;99.90;;;;;;12494275;28;20107;-39
2023/07/07 19:38:48;;;;;;;2.75;1.60;;;23.10;99.90;;;;;;12540952;28;20048;-36
2023/07/07 19:44:51;;;;;;;5.70;1.65;;;22.90;99.90;;;;;;12508281;28;20045;-37
2023/07/07 19:51:01;;;;;;;4.40;1.77;;;22.80;99.90;;;;;;12505149;28;20056;-37
2023/07/07 19:57:15;;;;;;;3.80;1.40;;;22.60;99.90;;;;;;12516382;28;20052;-37
2023/07/07 20:03:17;;;;;;;2.15;1.35;;;22.40;99.90;;;;;;12492691;28;20441;-36
2023/07/07 20:09:22;;;;;;;3.88;1.60;;;22.30;99.90;;;;;;12520409;28;20527;-38
2023/07/07 20:15:24;;;;;;;5.78;1.45;;;22.20;99.90;;;;;;12497483;28;20401;-37
2023/07/07 20:21:26;;;;;;;5.63;1.70;;;21.90;99.90;;;;;;12503133;28;20506;-37
2023/07/07 20:27:28;;;;;;;5.00;2.10;;;21.70;99.90;;;;;;12495353;28;20049;-36
2023/07/07 20:33:30;;;;;;;4.45;1.85;;;21.50;99.90;;;;;;12515123;28;20079;-36
2023/07/07 20:39:32;;;;;;;3.15;1.60;;;21.30;99.90;;;;;;12522887;28;20068;-36
2023/07/07 20:45:35;;;;;;;2.10;1.42;;;21.20;99.90;;;;;;12483332;28;20060;-36
2023/07/07 20:51:37;;;;;;;4.63;1.50;;;20.90;99.90;;;;;;12529140;28;20668;-37
2023/07/07 20:57:40;;;;;;;7.30;1.85;;;20.80;99.90;;;;;;12512314;28;20068;-38
2023/07/07 21:03:42;;;;;;;5.88;1.60;;;20.70;99.90;;;;;;12513685;28;20473;-37
2023/07/07 21:09:44;;;;;;;3.30;1.70;;;20.50;99.90;;;;;;12516988;28;20052;-37
2023/07/07 21:15:46;;;;;;;5.85;1.70;;;20.40;99.90;;;;;;12505573;28;20405;-38
2023/07/07 21:21:48;;;;;;;3.78;1.50;;;20.50;99.90;;;;;;12501789;28;20045;-37
2023/07/07 21:27:50;;;;;;;5.78;2.13;;;20.60;99.90;;;;;;12494288;28;20435;-38
2023/07/07 21:33:52;;;;;;;5.85;1.58;;;20.60;99.90;;;;;;12528078;28;20057;-37
2023/07/07 21:39:54;;;;;;;4.57;1.42;;;20.50;99.90;;;;;;12516505;28;20049;-37
2023/07/07 21:45:56;;;;;;;5.68;1.80;;;20.40;99.90;;;;;;12506498;28;20475;-37
2023/07/07 21:52:01;;;;;;;4.53;1.65;;;20.30;99.90;;;;;;12513761;28;20052;-37
2023/07/07 21:58:04;;;;;;;5.90;1.50;;;20.40;99.90;;;;;;12493513;28;20407;-37
2023/07/07 22:04:06;;;;;;;2.72;1.48;;;20.40;99.90;;;;;;12476893;28;20045;-39
2023/07/07 22:10:16;;;;;;;3.17;1.60;;;20.50;99.90;;;;;;12517802;28;20804;-37
2023/07/07 22:16:17;;;;;;;3.65;1.42;;;20.50;99.90;;;;;;12513836;28;20493;-37
2023/07/07 22:22:19;;;;;;;3.20;1.52;;;20.50;99.90;;;;;;12504931;28;20401;-37
2023/07/07 22:28:25;;;;;;;3.15;1.38;;;20.20;99.90;;;;;;12515548;28;20495;-37
2023/07/07 22:34:26;;;;;;;2.28;1.38;;;20.00;99.90;;;;;;12512185;28;20088;-37
2023/07/07 22:40:35;;;;;;;8.75;2.00;;;20.00;99.90;;;;;;12499317;28;20049;-37
2023/07/07 22:46:42;;;;;;;4.10;2.05;;;20.10;99.90;;;;;;12502545;28;20057;-37
2023/07/07 22:52:48;;;;;;;3.35;1.40;;;20.10;99.90;;;;;;12504073;28;20063;-37
2023/07/07 22:58:51;;;;;;;4.07;1.60;;;20.10;99.90;;;;;;12509874;28;20063;-37
2023/07/07 23:04:52;;;;;;;4.00;1.57;;;20.00;99.90;;;;;;12515588;28;20045;-38
2023/07/07 23:10:55;;;;;;;3.92;1.40;;;19.90;99.90;;;;;;12511881;28;20064;-37
2023/07/07 23:16:57;;;;;;;2.53;1.30;;;19.80;99.90;;;;;;12507281;28;20076;-37
2023/07/07 23:22:58;;;;;;;3.13;1.45;;;19.90;99.90;;;;;;12508420;28;20041;-38
2023/07/07 23:29:00;;;;;;;4.90;1.45;;;19.50;99.90;;;;;;12508323;28;20127;-38
2023/07/07 23:35:04;;;;;;;5.10;1.75;;;19.20;99.90;;;;;;12534819;28;20527;-38
2023/07/07 23:41:09;;;;;;;2.75;1.35;;;19.60;99.90;;;;;;12511721;28;20053;-37
2023/07/07 23:47:11;;;;;;;4.18;1.50;;;19.70;99.90;;;;;;12515820;28;20052;-38
2023/07/07 23:53:15;;;;;;;5.50;1.50;;;19.70;99.90;;;;;;12516782;28;20041;-36
2023/07/07 23:59:17;;;;;;;2.63;1.38;;;19.60;99.90;;;;;;12526221;28;20050;-37
